sensor_id;sensor_type;location;lat;lon;timestamp;pressure;altitude;pressure_sealevel;temperature;humidity
56514;BME280;62152;52.078;8.414;2023-02-18T00:00:59;66444.38;;;-146.75;100.00
56514;BME280;62152;52.078;8.414;2023-02-18T00:05:00;66444.38;;;-146.75;100.00
56514;BME280;62152;52.078;8.414;2023-02-18T00:09:02;66444.38;;;-146.75;100.00
56514;BME280;62152;52.078;8.414;2023-02-18T00:13:03;66444.38;;;-146.75;100.00
56514;BME280;62152;52.078;8.414;2023-02-18T00:17:05;66444.38;;;-146.75;100.00
56514;BME280;62152;52.078;8.414;2023-02-18T00:21:07;66444.38;;;-146.75;100.00
56514;BME280;62152;52.078;8.414;2023-02-18T00:25:08;66444.38;;;-146.75;100.00
56514;BME280;62152;52.078;8.414;2023-02-18T00:29:08;66444.38;;;-146.75;100.00
56514;BME280;62152;52.078;8.414;2023-02-18T00:33:10;66444.38;;;-146.75;100.00
56514;BME280;62152;52.078;8.414;2023-02-18T00:37:11;66444.38;;;-146.75;100.00
56514;BME280;62152;52.078;8.414;2023-02-18T00:41:12;66444.38;;;-146.75;100.00
56514;BME280;62152;52.078;8.414;2023-02-18T00:45:13;66444.38;;;-146.75;100.00
56514;BME280;62152;52.078;8.414;2023-02-18T00:49:15;66444.38;;;-146.75;100.00
56514;BME280;62152;52.078;8.414;2023-02-18T00:53:16;66444.38;;;-146.75;100.00
56514;BME280;62152;52.078;8.414;2023-02-18T00:57:17;66444.38;;;-146.75;100.00
56514;BME280;62152;52.078;8.414;2023-02-18T01:01:19;66444.38;;;-146.75;100.00
56514;BME280;62152;52.078;8.414;2023-02-18T01:05:21;66444.38;;;-146.75;100.00
56514;BME280;62152;52.078;8.414;2023-02-18T01:09:21;66444.38;;;-146.75;100.00
56514;BME280;62152;52.078;8.414;2023-02-18T01:13:24;66444.38;;;-146.75;100.00
56514;BME280;62152;52.078;8.414;2023-02-18T01:17:25;66444.38;;;-146.75;100.00
56514;BME280;62152;52.078;8.414;2023-02-18T01:21:27;66444.38;;;-146.75;100.00
56514;BME280;62152;52.078;8.414;2023-02-18T01:25:28;66444.38;;;-146.75;100.00
56514;BME280;62152;52.078;8.414;2023-02-18T01:29:29;66444.38;;;-146.75;100.00
56514;BME280;62152;52.078;8.414;2023-02-18T01:33:30;66444.38;;;-146.75;100.00
56514;BME280;62152;52.078;8.414;2023-02-18T01:37:32;66444.38;;;-146.75;100.00
56514;BME280;62152;52.078;8.414;2023-02-18T01:41:33;66444.38;;;-146.75;100.00
56514;BME280;62152;52.078;8.414;2023-02-18T01:45:49;66444.38;;;-146.75;100.00
56514;BME280;62152;52.078;8.414;2023-02-18T01:49:52;66444.38;;;-146.75;100.00
56514;BME280;62152;52.078;8.414;2023-02-18T01:54:00;66444.38;;;-146.75;100.00
56514;BME280;62152;52.078;8.414;2023-02-18T01:58:02;66444.38;;;-146.75;100.00
56514;BME280;62152;52.078;8.414;2023-02-18T02:02:08;66444.38;;;-146.75;100.00
56514;BME280;62152;52.078;8.414;2023-02-18T02:06:15;66444.38;;;-146.75;100.00
56514;BME280;62152;52.078;8.414;2023-02-18T02:10:18;66444.38;;;-146.75;100.00
56514;BME280;62152;52.078;8.414;2023-02-18T02:14:34;66444.38;;;-146.75;100.00
56514;BME280;62152;52.078;8.414;2023-02-18T02:19:01;66444.38;;;-146.75;100.00
56514;BME280;62152;52.078;8.414;2023-02-18T02:28:04;66444.38;;;-146.75;100.00
56514;BME280;62152;52.078;8.414;2023-02-18T02:36:48;66444.38;;;-146.75;100.00
56514;BME280;62152;52.078;8.414;2023-02-18T02:41:01;66444.38;;;-146.75;100.00
56514;BME280;62152;52.078;8.414;2023-02-18T02:45:17;66444.38;;;-146.75;100.00
56514;BME280;62152;52.078;8.414;2023-02-18T02:49:32;66444.38;;;-146.75;100.00
56514;BME280;62152;52.078;8.414;2023-02-18T02:53:40;66444.38;;;-146.75;100.00
56514;BME280;62152;52.078;8.414;2023-02-18T02:57:51;66444.38;;;-146.75;100.00
56514;BME280;62152;52.078;8.414;2023-02-18T03:02:12;66444.38;;;-146.75;100.00
56514;BME280;62152;52.078;8.414;2023-02-18T03:06:35;66444.38;;;-146.75;100.00
56514;BME280;62152;52.078;8.414;2023-02-18T03:10:48;66444.38;;;-146.75;100.00
56514;BME280;62152;52.078;8.414;2023-02-18T03:15:00;66444.38;;;-146.75;100.00
56514;BME280;62152;52.078;8.414;2023-02-18T03:19:09;66444.38;;;-146.75;100.00
56514;BME280;62152;52.078;8.414;2023-02-18T03:23:19;66444.38;;;-146.75;100.00
56514;BME280;62152;52.078;8.414;2023-02-18T03:27:27;66444.38;;;-146.75;100.00
56514;BME280;62152;52.078;8.414;2023-02-18T03:31:34;66444.38;;;-146.75;100.00
56514;BME280;62152;52.078;8.414;2023-02-18T03:35:37;66444.38;;;-146.75;100.00
56514;BME280;62152;52.078;8.414;2023-02-18T03:39:43;66444.38;;;-146.75;100.00
56514;BME280;62152;52.078;8.414;2023-02-18T03:43:51;66444.38;;;-146.75;100.00
56514;BME280;62152;52.078;8.414;2023-02-18T03:47:52;66444.38;;;-146.75;100.00
56514;BME280;62152;52.078;8.414;2023-02-18T03:51:53;66444.38;;;-146.75;100.00
56514;BME280;62152;52.078;8.414;2023-02-18T03:55:53;66444.38;;;-146.75;100.00
56514;BME280;62152;52.078;8.414;2023-02-18T03:59:55;66444.38;;;-146.75;100.00
56514;BME280;62152;52.078;8.414;2023-02-18T04:03:56;66444.38;;;-146.75;100.00
56514;BME280;62152;52.078;8.414;2023-02-18T04:07:57;66444.38;;;-146.75;100.00
56514;BME280;62152;52.078;8.414;2023-02-18T04:11:58;66444.38;;;-146.75;100.00
56514;BME280;62152;52.078;8.414;2023-02-18T04:16:00;66444.38;;;-146.75;100.00
56514;BME280;62152;52.078;8.414;2023-02-18T04:20:00;66444.38;;;-146.75;100.00
56514;BME280;62152;52.078;8.414;2023-02-18T04:24:01;66444.38;;;-146.75;100.00
56514;BME280;62152;52.078;8.414;2023-02-18T04:28:02;66444.38;;;-146.75;100.00
56514;BME280;62152;52.078;8.414;2023-02-18T04:32:04;66444.38;;;-146.75;100.00
56514;BME280;62152;52.078;8.414;2023-02-18T04:36:06;66444.38;;;-146.75;100.00
56514;BME280;62152;52.078;8.414;2023-02-18T04:40:07;66444.38;;;-146.75;100.00
56514;BME280;62152;52.078;8.414;2023-02-18T04:44:08;66444.38;;;-146.75;100.00
56514;BME280;62152;52.078;8.414;2023-02-18T04:48:10;66444.38;;;-146.75;100.00
56514;BME280;62152;52.078;8.414;2023-02-18T04:52:11;66444.38;;;-146.75;100.00
56514;BME280;62152;52.078;8.414;2023-02-18T04:56:11;66444.38;;;-146.75;100.00
56514;BME280;62152;52.078;8.414;2023-02-18T05:00:15;66444.38;;;-146.75;100.00
56514;BME280;62152;52.078;8.414;2023-02-18T05:04:18;66444.38;;;-146.75;100.00
56514;BME280;62152;52.078;8.414;2023-02-18T05:08:18;66444.38;;;-146.75;100.00
56514;BME280;62152;52.078;8.414;2023-02-18T05:12:19;66444.38;;;-146.75;100.00
56514;BME280;62152;52.078;8.414;2023-02-18T05:16:20;66444.38;;;-146.75;100.00
56514;BME280;62152;52.078;8.414;2023-02-18T05:20:22;66444.38;;;-146.75;100.00
56514;BME280;62152;52.078;8.414;2023-02-18T05:24:22;66444.38;;;-146.75;100.00
56514;BME280;62152;52.078;8.414;2023-02-18T05:28:24;66444.38;;;-146.75;100.00
56514;BME280;62152;52.078;8.414;2023-02-18T05:32:25;66444.38;;;-146.75;100.00
56514;BME280;62152;52.078;8.414;2023-02-18T05:36:27;66444.38;;;-146.75;100.00
56514;BME280;62152;52.078;8.414;2023-02-18T05:40:27;66444.38;;;-146.75;100.00
56514;BME280;62152;52.078;8.414;2023-02-18T05:44:28;66444.38;;;-146.75;100.00
56514;BME280;62152;52.078;8.414;2023-02-18T05:48:29;66444.38;;;-146.75;100.00
56514;BME280;62152;52.078;8.414;2023-02-18T05:52:31;66444.38;;;-146.75;100.00
56514;BME280;62152;52.078;8.414;2023-02-18T05:56:31;66444.38;;;-146.75;100.00
56514;BME280;62152;52.078;8.414;2023-02-18T06:00:32;66444.38;;;-146.75;100.00
56514;BME280;62152;52.078;8.414;2023-02-18T06:04:33;66444.38;;;-146.75;100.00
56514;BME280;62152;52.078;8.414;2023-02-18T06:08:35;66444.38;;;-146.75;100.00
56514;BME280;62152;52.078;8.414;2023-02-18T06:12:36;66444.38;;;-146.75;100.00
56514;BME280;62152;52.078;8.414;2023-02-18T06:16:36;66444.38;;;-146.75;100.00
56514;BME280;62152;52.078;8.414;2023-02-18T06:20:38;66444.38;;;-146.75;100.00
56514;BME280;62152;52.078;8.414;2023-02-18T06:24:40;66444.38;;;-146.75;100.00
56514;BME280;62152;52.078;8.414;2023-02-18T06:28:41;66444.38;;;-146.75;100.00
56514;BME280;62152;52.078;8.414;2023-02-18T06:32:41;66444.38;;;-146.75;100.00
56514;BME280;62152;52.078;8.414;2023-02-18T06:36:42;66444.38;;;-146.75;100.00
56514;BME280;62152;52.078;8.414;2023-02-18T06:40:47;66444.38;;;-146.75;100.00
56514;BME280;62152;52.078;8.414;2023-02-18T06:44:47;66444.38;;;-146.75;100.00
56514;BME280;62152;52.078;8.414;2023-02-18T06:48:48;66444.38;;;-146.75;100.00
56514;BME280;62152;52.078;8.414;2023-02-18T06:52:49;66444.38;;;-146.75;100.00
56514;BME280;62152;52.078;8.414;2023-02-18T06:56:51;66444.38;;;-146.75;100.00
56514;BME280;62152;52.078;8.414;2023-02-18T07:00:51;66444.38;;;-146.75;100.00
56514;BME280;62152;52.078;8.414;2023-02-18T07:04:53;66444.38;;;-146.75;100.00
56514;BME280;62152;52.078;8.414;2023-02-18T07:08:54;66444.38;;;-146.75;100.00
56514;BME280;62152;52.078;8.414;2023-02-18T07:12:56;66444.38;;;-146.75;100.00
56514;BME280;62152;52.078;8.414;2023-02-18T07:16:57;66444.38;;;-146.75;100.00
56514;BME280;62152;52.078;8.414;2023-02-18T07:20:57;66444.38;;;-146.75;100.00
56514;BME280;62152;52.078;8.414;2023-02-18T07:24:58;66444.38;;;-146.75;100.00
56514;BME280;62152;52.078;8.414;2023-02-18T07:29:00;66444.38;;;-146.75;100.00
56514;BME280;62152;52.078;8.414;2023-02-18T07:33:01;66444.38;;;-146.75;100.00
56514;BME280;62152;52.078;8.414;2023-02-18T07:37:01;66444.38;;;-146.75;100.00
56514;BME280;62152;52.078;8.414;2023-02-18T07:41:02;66444.38;;;-146.75;100.00
56514;BME280;62152;52.078;8.414;2023-02-18T07:45:05;66444.38;;;-146.75;100.00
56514;BME280;62152;52.078;8.414;2023-02-18T07:49:06;66444.38;;;-146.75;100.00
56514;BME280;62152;52.078;8.414;2023-02-18T07:53:08;66444.38;;;-146.75;100.00
56514;BME280;62152;52.078;8.414;2023-02-18T07:57:10;66444.38;;;-146.75;100.00
56514;BME280;62152;52.078;8.414;2023-02-18T08:01:14;66444.38;;;-146.75;100.00
56514;BME280;62152;52.078;8.414;2023-02-18T08:05:14;66444.38;;;-146.75;100.00
56514;BME280;62152;52.078;8.414;2023-02-18T08:09:16;66444.38;;;-146.75;100.00
56514;BME280;62152;52.078;8.414;2023-02-18T08:13:17;66444.38;;;-146.75;100.00
56514;BME280;62152;52.078;8.414;2023-02-18T08:17:19;66444.38;;;-146.75;100.00
56514;BME280;62152;52.078;8.414;2023-02-18T08:21:22;66444.38;;;-146.75;100.00
56514;BME280;62152;52.078;8.414;2023-02-18T08:25:24;66444.38;;;-146.75;100.00
56514;BME280;62152;52.078;8.414;2023-02-18T08:29:25;66444.38;;;-146.75;100.00
56514;BME280;62152;52.078;8.414;2023-02-18T08:33:28;66444.38;;;-146.75;100.00
56514;BME280;62152;52.078;8.414;2023-02-18T08:37:29;66444.38;;;-146.75;100.00
56514;BME280;62152;52.078;8.414;2023-02-18T08:41:30;66444.38;;;-146.75;100.00
56514;BME280;62152;52.078;8.414;2023-02-18T08:45:30;66444.38;;;-146.75;100.00
56514;BME280;62152;52.078;8.414;2023-02-18T08:49:32;66444.38;;;-146.75;100.00
56514;BME280;62152;52.078;8.414;2023-02-18T08:53:33;66444.38;;;-146.75;100.00
56514;BME280;62152;52.078;8.414;2023-02-18T08:57:34;66444.38;;;-146.75;100.00
56514;BME280;62152;52.078;8.414;2023-02-18T09:01:34;66444.38;;;-146.75;100.00
56514;BME280;62152;52.078;8.414;2023-02-18T09:05:38;66444.38;;;-146.75;100.00
56514;BME280;62152;52.078;8.414;2023-02-18T09:09:39;66444.38;;;-146.75;100.00
56514;BME280;62152;52.078;8.414;2023-02-18T09:13:41;66444.38;;;-146.75;100.00
56514;BME280;62152;52.078;8.414;2023-02-18T09:17:42;66444.38;;;-146.75;100.00
56514;BME280;62152;52.078;8.414;2023-02-18T09:21:44;66444.38;;;-146.75;100.00
56514;BME280;62152;52.078;8.414;2023-02-18T09:25:45;66444.38;;;-146.75;100.00
56514;BME280;62152;52.078;8.414;2023-02-18T09:29:45;66444.38;;;-146.75;100.00
56514;BME280;62152;52.078;8.414;2023-02-18T09:33:48;66444.38;;;-146.75;100.00
56514;BME280;62152;52.078;8.414;2023-02-18T09:37:50;66444.38;;;-146.75;100.00
56514;BME280;62152;52.078;8.414;2023-02-18T09:41:53;66444.38;;;-146.75;100.00
56514;BME280;62152;52.078;8.414;2023-02-18T09:45:56;66444.38;;;-146.75;100.00
56514;BME280;62152;52.078;8.414;2023-02-18T09:50:05;66444.38;;;-146.75;100.00
56514;BME280;62152;52.078;8.414;2023-02-18T09:54:10;66444.38;;;-146.75;100.00
56514;BME280;62152;52.078;8.414;2023-02-18T09:58:14;66444.38;;;-146.75;100.00
56514;BME280;62152;52.078;8.414;2023-02-18T10:02:18;66444.38;;;-146.75;100.00
56514;BME280;62152;52.078;8.414;2023-02-18T10:06:23;66444.38;;;-146.75;100.00
56514;BME280;62152;52.078;8.414;2023-02-18T10:10:35;66444.38;;;-146.75;100.00
56514;BME280;62152;52.078;8.414;2023-02-18T10:14:37;66444.38;;;-146.75;100.00
56514;BME280;62152;52.078;8.414;2023-02-18T10:18:41;66444.38;;;-146.75;100.00
56514;BME280;62152;52.078;8.414;2023-02-18T10:22:43;66444.38;;;-146.75;100.00
56514;BME280;62152;52.078;8.414;2023-02-18T10:26:46;66444.38;;;-146.75;100.00
56514;BME280;62152;52.078;8.414;2023-02-18T10:30:54;66444.38;;;-146.75;100.00
56514;BME280;62152;52.078;8.414;2023-02-18T10:35:05;66444.38;;;-146.75;100.00
56514;BME280;62152;52.078;8.414;2023-02-18T10:39:37;66444.38;;;-146.75;100.00
56514;BME280;62152;52.078;8.414;2023-02-18T10:43:50;66444.38;;;-146.75;100.00
56514;BME280;62152;52.078;8.414;2023-02-18T10:48:08;66444.38;;;-146.75;100.00
56514;BME280;62152;52.078;8.414;2023-02-18T10:52:16;66444.38;;;-146.75;100.00
56514;BME280;62152;52.078;8.414;2023-02-18T10:56:36;66444.38;;;-146.75;100.00
56514;BME280;62152;52.078;8.414;2023-02-18T11:00:39;66444.38;;;-146.75;100.00
56514;BME280;62152;52.078;8.414;2023-02-18T11:04:43;66444.38;;;-146.75;100.00
56514;BME280;62152;52.078;8.414;2023-02-18T11:08:45;66444.38;;;-146.75;100.00
56514;BME280;62152;52.078;8.414;2023-02-18T11:12:49;66444.38;;;-146.75;100.00
56514;BME280;62152;52.078;8.414;2023-02-18T11:16:52;66444.38;;;-146.75;100.00
56514;BME280;62152;52.078;8.414;2023-02-18T11:20:56;66444.38;;;-146.75;100.00
56514;BME280;62152;52.078;8.414;2023-02-18T11:24:59;66444.38;;;-146.75;100.00
56514;BME280;62152;52.078;8.414;2023-02-18T11:29:03;66444.38;;;-146.75;100.00
56514;BME280;62152;52.078;8.414;2023-02-18T11:33:14;66444.38;;;-146.75;100.00
56514;BME280;62152;52.078;8.414;2023-02-18T11:37:19;66444.38;;;-146.75;100.00
56514;BME280;62152;52.078;8.414;2023-02-18T11:41:31;66444.38;;;-146.75;100.00
56514;BME280;62152;52.078;8.414;2023-02-18T11:45:34;66444.38;;;-146.75;100.00
56514;BME280;62152;52.078;8.414;2023-02-18T11:49:36;66444.38;;;-146.75;100.00
56514;BME280;62152;52.078;8.414;2023-02-18T11:53:36;66444.38;;;-146.75;100.00
56514;BME280;62152;52.078;8.414;2023-02-18T11:57:41;66444.38;;;-146.75;100.00
56514;BME280;62152;52.078;8.414;2023-02-18T12:01:45;66444.38;;;-146.75;100.00
56514;BME280;62152;52.078;8.414;2023-02-18T12:05:51;66444.38;;;-146.75;100.00
56514;BME280;62152;52.078;8.414;2023-02-18T12:09:55;66444.38;;;-146.75;100.00
56514;BME280;62152;52.078;8.414;2023-02-18T12:13:58;66444.38;;;-146.75;100.00
56514;BME280;62152;52.078;8.414;2023-02-18T12:18:14;66444.38;;;-146.75;100.00
56514;BME280;62152;52.078;8.414;2023-02-18T12:22:32;66444.38;;;-146.75;100.00
56514;BME280;62152;52.078;8.414;2023-02-18T12:26:48;66444.38;;;-146.75;100.00
56514;BME280;62152;52.078;8.414;2023-02-18T12:31:18;66444.38;;;-146.75;100.00
56514;BME280;62152;52.078;8.414;2023-02-18T12:35:41;66444.38;;;-146.75;100.00
56514;BME280;62152;52.078;8.414;2023-02-18T12:40:01;66444.38;;;-146.75;100.00
56514;BME280;62152;52.078;8.414;2023-02-18T12:44:22;66444.38;;;-146.75;100.00
56514;BME280;62152;52.078;8.414;2023-02-18T12:48:42;66444.38;;;-146.75;100.00
56514;BME280;62152;52.078;8.414;2023-02-18T12:53:01;66444.38;;;-146.75;100.00
56514;BME280;62152;52.078;8.414;2023-02-18T12:57:28;66444.38;;;-146.75;100.00
56514;BME280;62152;52.078;8.414;2023-02-18T13:01:37;66444.38;;;-146.75;100.00
56514;BME280;62152;52.078;8.414;2023-02-18T13:05:49;66444.38;;;-146.75;100.00
56514;BME280;62152;52.078;8.414;2023-02-18T13:10:11;66444.38;;;-146.75;100.00
56514;BME280;62152;52.078;8.414;2023-02-18T13:14:22;66444.38;;;-146.75;100.00
56514;BME280;62152;52.078;8.414;2023-02-18T13:18:30;66444.38;;;-146.75;100.00
56514;BME280;62152;52.078;8.414;2023-02-18T13:22:32;66444.38;;;-146.75;100.00
56514;BME280;62152;52.078;8.414;2023-02-18T13:26:34;66444.38;;;-146.75;100.00
56514;BME280;62152;52.078;8.414;2023-02-18T13:30:42;66444.38;;;-146.75;100.00
56514;BME280;62152;52.078;8.414;2023-02-18T13:34:49;66444.38;;;-146.75;100.00
56514;BME280;62152;52.078;8.414;2023-02-18T13:39:01;66444.38;;;-146.75;100.00
56514;BME280;62152;52.078;8.414;2023-02-18T13:43:18;66444.38;;;-146.75;100.00
56514;BME280;62152;52.078;8.414;2023-02-18T13:51:49;100088.28;;;17.45;60.01
56514;BME280;62152;52.078;8.414;2023-02-18T13:56:04;100085.91;;;17.43;60.02
56514;BME280;62152;52.078;8.414;2023-02-18T14:00:20;100085.09;;;17.43;60.19
56514;BME280;62152;52.078;8.414;2023-02-18T14:04:49;100088.63;;;17.43;59.83
56514;BME280;62152;52.078;8.414;2023-02-18T14:13:23;100079.19;;;17.41;59.95
56514;BME280;62152;52.078;8.414;2023-02-18T14:17:48;100081.91;;;17.41;59.35
56514;BME280;62152;52.078;8.414;2023-02-18T14:21:49;100086.56;;;17.37;59.76
56514;BME280;62152;52.078;8.414;2023-02-18T14:25:53;100088.13;;;17.38;59.58
56514;BME280;62152;52.078;8.414;2023-02-18T14:30:02;100094.78;;;17.37;59.24
56514;BME280;62152;52.078;8.414;2023-02-18T14:34:25;100090.09;;;17.37;58.99
56514;BME280;62152;52.078;8.414;2023-02-18T14:38:40;100091.25;;;17.36;59.41
56514;BME280;62152;52.078;8.414;2023-02-18T14:42:55;100097.88;;;17.35;59.58
56514;BME280;62152;52.078;8.414;2023-02-18T14:47:13;100098.66;;;17.36;58.84
56514;BME280;62152;52.078;8.414;2023-02-18T14:51:22;100092.03;;;17.37;59.10
56514;BME280;62152;52.078;8.414;2023-02-18T14:55:27;100094.34;;;17.35;58.70
56514;BME280;62152;52.078;8.414;2023-02-18T14:59:34;100100.59;;;17.35;59.24
56514;BME280;62152;52.078;8.414;2023-02-18T15:03:39;100108.03;;;17.35;58.78
56514;BME280;62152;52.078;8.414;2023-02-18T15:07:40;100105.31;;;17.35;58.60
56514;BME280;62152;52.078;8.414;2023-02-18T15:11:45;100118.22;;;17.34;58.53
56514;BME280;62152;52.078;8.414;2023-02-18T15:15:51;100117.06;;;17.35;58.47
56514;BME280;62152;52.078;8.414;2023-02-18T15:19:55;100122.13;;;17.33;59.20
56514;BME280;62152;52.078;8.414;2023-02-18T15:24:04;100134.66;;;17.34;58.82
56514;BME280;62152;52.078;8.414;2023-02-18T15:28:05;100140.16;;;17.34;58.73
56514;BME280;62152;52.078;8.414;2023-02-18T15:32:16;100128.38;;;17.34;58.16
56514;BME280;62152;52.078;8.414;2023-02-18T15:36:18;100124.06;;;17.33;58.62
56514;BME280;62152;52.078;8.414;2023-02-18T15:40:21;100133.88;;;17.34;58.66
56514;BME280;62152;52.078;8.414;2023-02-18T15:44:26;100140.53;;;17.33;58.69
56514;BME280;62152;52.078;8.414;2023-02-18T15:48:33;100145.56;;;17.31;58.83
56514;BME280;62152;52.078;8.414;2023-02-18T15:52:37;100143.25;;;17.33;58.73
56514;BME280;62152;52.078;8.414;2023-02-18T15:56:42;100140.88;;;17.31;58.51
56514;BME280;62152;52.078;8.414;2023-02-18T16:00:48;100137.78;;;17.33;58.27
56514;BME280;62152;52.078;8.414;2023-02-18T16:04:56;100136.56;;;17.30;58.27
56514;BME280;62152;52.078;8.414;2023-02-18T16:08:59;100142.84;;;17.31;58.59
56514;BME280;62152;52.078;8.414;2023-02-18T16:13:02;100147.53;;;17.30;58.27
56514;BME280;62152;52.078;8.414;2023-02-18T16:17:08;100145.13;;;17.29;58.19
56514;BME280;62152;52.078;8.414;2023-02-18T16:21:28;100155.75;;;17.30;57.89
56514;BME280;62152;52.078;8.414;2023-02-18T16:25:41;100164.91;;;17.57;59.97
56514;BME280;62152;52.078;8.414;2023-02-18T16:29:43;100159.97;;;17.66;59.40
56514;BME280;62152;52.078;8.414;2023-02-18T16:33:44;100161.03;;;17.62;59.76
56514;BME280;62152;52.078;8.414;2023-02-18T16:37:46;100158.59;;;17.57;60.20
56514;BME280;62152;52.078;8.414;2023-02-18T16:41:46;100166.81;;;17.57;60.16
56514;BME280;62152;52.078;8.414;2023-02-18T16:45:49;100171.97;;;17.58;60.56
56514;BME280;62152;52.078;8.414;2023-02-18T16:49:50;100171.22;;;17.61;60.54
56514;BME280;62152;52.078;8.414;2023-02-18T16:53:52;100179.94;;;17.67;60.09
56514;BME280;62152;52.078;8.414;2023-02-18T16:57:53;100175.63;;;17.66;60.74
56514;BME280;62152;52.078;8.414;2023-02-18T17:01:54;100183.50;;;17.67;60.44
56514;BME280;62152;52.078;8.414;2023-02-18T17:05:55;100189.75;;;17.68;60.85
56514;BME280;62152;52.078;8.414;2023-02-18T17:09:57;100183.50;;;17.67;60.87
56514;BME280;62152;52.078;8.414;2023-02-18T17:13:58;100190.56;;;17.68;61.10
56514;BME280;62152;52.078;8.414;2023-02-18T17:17:59;100192.94;;;17.70;60.96
56514;BME280;62152;52.078;8.414;2023-02-18T17:22:00;100201.63;;;17.72;60.74
56514;BME280;62152;52.078;8.414;2023-02-18T17:26:04;100201.03;;;17.82;60.51
56514;BME280;62152;52.078;8.414;2023-02-18T17:30:11;100213.66;;;17.87;59.89
56514;BME280;62152;52.078;8.414;2023-02-18T17:34:16;100216.13;;;17.92;60.49
56514;BME280;62152;52.078;8.414;2023-02-18T17:38:18;100225.47;;;17.91;60.25
56514;BME280;62152;52.078;8.414;2023-02-18T17:42:20;100227.16;;;17.95;60.76
56514;BME280;62152;52.078;8.414;2023-02-18T17:46:21;100233.84;;;17.98;60.55
56514;BME280;62152;52.078;8.414;2023-02-18T17:50:22;100229.22;;;18.02;61.71
56514;BME280;62152;52.078;8.414;2023-02-18T17:54:23;100236.31;;;18.03;62.36
56514;BME280;62152;52.078;8.414;2023-02-18T17:58:25;100238.34;;;18.06;61.86
56514;BME280;62152;52.078;8.414;2023-02-18T18:02:27;100238.91;;;17.96;61.48
56514;BME280;62152;52.078;8.414;2023-02-18T18:06:28;100250.78;;;17.81;61.67
56514;BME280;62152;52.078;8.414;2023-02-18T18:10:31;100253.03;;;17.75;62.00
56514;BME280;62152;52.078;8.414;2023-02-18T18:14:34;100244.75;;;17.71;61.94
56514;BME280;62152;52.078;8.414;2023-02-18T18:18:34;100248.16;;;17.68;61.42
56514;BME280;62152;52.078;8.414;2023-02-18T18:22:35;100252.06;;;17.67;61.22
56514;BME280;62152;52.078;8.414;2023-02-18T18:26:35;100244.56;;;17.64;61.25
56514;BME280;62152;52.078;8.414;2023-02-18T18:30:40;100266.50;;;17.64;61.88
56514;BME280;62152;52.078;8.414;2023-02-18T18:34:41;100257.81;;;17.62;61.47
56514;BME280;62152;52.078;8.414;2023-02-18T18:38:42;100254.66;;;17.60;60.77
56514;BME280;62152;52.078;8.414;2023-02-18T18:42:43;100257.41;;;17.60;61.41
56514;BME280;62152;52.078;8.414;2023-02-18T18:46:45;100273.84;;;17.60;61.18
56514;BME280;62152;52.078;8.414;2023-02-18T18:50:46;100267.59;;;17.60;60.79
56514;BME280;62152;52.078;8.414;2023-02-18T18:54:47;100267.16;;;17.58;60.54
56514;BME280;62152;52.078;8.414;2023-02-18T18:58:48;100270.25;;;17.56;60.33
56514;BME280;62152;52.078;8.414;2023-02-18T19:02:50;100269.44;;;17.56;60.58
56514;BME280;62152;52.078;8.414;2023-02-18T19:06:51;100269.44;;;17.56;60.68
56514;BME280;62152;52.078;8.414;2023-02-18T19:10:53;100269.44;;;17.56;60.67
56514;BME280;62152;52.078;8.414;2023-02-18T19:14:54;100271.41;;;17.55;60.67
56514;BME280;62152;52.078;8.414;2023-02-18T19:18:56;100261.59;;;17.54;59.96
56514;BME280;62152;52.078;8.414;2023-02-18T19:22:57;100269.38;;;17.52;60.23
56514;BME280;62152;52.078;8.414;2023-02-18T19:26:58;100259.22;;;17.53;60.40
56514;BME280;62152;52.078;8.414;2023-02-18T19:30:59;100256.84;;;17.51;60.26
56514;BME280;62152;52.078;8.414;2023-02-18T19:35:01;100261.94;;;17.53;59.75
56514;BME280;62152;52.078;8.414;2023-02-18T19:39:02;100261.53;;;17.50;60.25
56514;BME280;62152;52.078;8.414;2023-02-18T19:43:03;100267.81;;;17.51;59.87
56514;BME280;62152;52.078;8.414;2023-02-18T19:47:03;100262.31;;;17.51;59.98
56514;BME280;62152;52.078;8.414;2023-02-18T19:51:06;100267.00;;;17.50;59.64
56514;BME280;62152;52.078;8.414;2023-02-18T19:55:08;100267.00;;;17.50;59.63
56514;BME280;62152;52.078;8.414;2023-02-18T19:59:09;100266.56;;;17.48;60.00
56514;BME280;62152;52.078;8.414;2023-02-18T20:03:09;100258.31;;;17.48;59.84
56514;BME280;62152;52.078;8.414;2023-02-18T20:07:12;100252.06;;;17.48;59.58
56514;BME280;62152;52.078;8.414;2023-02-18T20:11:13;100242.66;;;17.49;59.68
56514;BME280;62152;52.078;8.414;2023-02-18T20:15:13;100246.56;;;17.48;59.37
56514;BME280;62152;52.078;8.414;2023-02-18T20:19:14;100237.56;;;17.47;59.37
56514;BME280;62152;52.078;8.414;2023-02-18T20:23:17;100247.72;;;17.47;59.91
56514;BME280;62152;52.078;8.414;2023-02-18T20:27:17;100237.56;;;17.47;59.44
56514;BME280;62152;52.078;8.414;2023-02-18T20:31:18;100247.34;;;17.48;59.36
56514;BME280;62152;52.078;8.414;2023-02-18T20:35:19;100234.03;;;17.47;59.71
56514;BME280;62152;52.078;8.414;2023-02-18T20:39:21;100231.28;;;17.47;59.47
56514;BME280;62152;52.078;8.414;2023-02-18T20:43:22;100225.78;;;17.47;58.98
56514;BME280;62152;52.078;8.414;2023-02-18T20:47:23;100225.41;;;17.48;59.38
56514;BME280;62152;52.078;8.414;2023-02-18T20:51:24;100219.94;;;17.48;59.09
56514;BME280;62152;52.078;8.414;2023-02-18T20:55:26;100208.19;;;17.48;59.30
56514;BME280;62152;52.078;8.414;2023-02-18T20:59:27;100212.09;;;17.47;59.05
56514;BME280;62152;52.078;8.414;2023-02-18T21:03:28;100217.19;;;17.48;59.47
56514;BME280;62152;52.078;8.414;2023-02-18T21:07:29;100212.09;;;17.47;59.14
56514;BME280;62152;52.078;8.414;2023-02-18T21:11:31;100215.97;;;17.46;59.26
56514;BME280;62152;52.078;8.414;2023-02-18T21:15:35;100205.00;;;17.46;58.94